sensor_id;sensor_type;location;lat;lon;timestamp;pressure;altitude;pressure_sealevel;temperature;humidity
7376;BME280;3728;42.266;24.944;2023-03-25T00:01:44;99330.25;;;10.19;76.95
7376;BME280;3728;42.266;24.944;2023-03-25T00:04:13;99318.69;;;9.89;77.85
7376;BME280;3728;42.266;24.944;2023-03-25T00:06:43;99320.53;;;9.89;78.26
7376;BME280;3728;42.266;24.944;2023-03-25T00:09:11;99318.19;;;10.09;78.27
7376;BME280;3728;42.266;24.944;2023-03-25T00:11:39;99314.13;;;10.03;78.45
7376;BME280;3728;42.266;24.944;2023-03-25T00:14:06;99327.00;;;10.13;78.22
7376;BME280;3728;42.266;24.944;2023-03-25T00:16:34;99330.34;;;10.36;77.22
7376;BME280;3728;42.266;24.944;2023-03-25T00:19:02;99322.16;;;10.29;76.97
7376;BME280;3728;42.266;24.944;2023-03-25T00:21:30;99323.91;;;10.11;78.02
7376;BME280;3728;42.266;24.944;2023-03-25T00:23:58;99314.41;;;9.93;79.12
7376;BME280;3728;42.266;24.944;2023-03-25T00:26:26;99314.31;;;9.76;80.62
7376;BME280;3728;42.266;24.944;2023-03-25T00:28:55;99315.38;;;9.75;81.09
7376;BME280;3728;42.266;24.944;2023-03-25T00:31:23;99311.69;;;9.76;80.62
7376;BME280;3728;42.266;24.944;2023-03-25T00:33:50;99307.34;;;9.94;80.32
7376;BME280;3728;42.266;24.944;2023-03-25T00:36:18;99311.22;;;9.74;81.26
7376;BME280;3728;42.266;24.944;2023-03-25T00:38:47;99308.06;;;9.63;82.02
7376;BME280;3728;42.266;24.944;2023-03-25T00:41:20;99301.81;;;9.73;82.18
7376;BME280;3728;42.266;24.944;2023-03-25T00:43:56;99304.84;;;9.89;81.25
7376;BME280;3728;42.266;24.944;2023-03-25T00:46:27;99299.84;;;9.79;81.41
7376;BME280;3728;42.266;24.944;2023-03-25T00:48:59;99289.94;;;9.67;82.18
7376;BME280;3728;42.266;24.944;2023-03-25T00:51:28;99294.19;;;9.85;81.38
7376;BME280;3728;42.266;24.944;2023-03-25T00:53:58;99295.97;;;9.98;80.42
7376;BME280;3728;42.266;24.944;2023-03-25T00:56:26;99290.66;;;9.81;81.18
7376;BME280;3728;42.266;24.944;2023-03-25T00:58:55;99288.28;;;9.71;81.91
7376;BME280;3728;42.266;24.944;2023-03-25T01:01:27;99288.97;;;9.85;81.34
7376;BME280;3728;42.266;24.944;2023-03-25T01:03:57;99295.47;;;9.96;80.69
7376;BME280;3728;42.266;24.944;2023-03-25T01:06:28;99291.31;;;9.87;81.25
7376;BME280;3728;42.266;24.944;2023-03-25T01:09:05;99279.72;;;9.79;81.41
7376;BME280;3728;42.266;24.944;2023-03-25T01:11:35;99285.84;;;9.75;82.02
7376;BME280;3728;42.266;24.944;2023-03-25T01:14:07;99280.00;;;9.78;81.98
7376;BME280;3728;42.266;24.944;2023-03-25T01:16:39;99281.25;;;9.80;81.76
7376;BME280;3728;42.266;24.944;2023-03-25T01:19:10;99273.78;;;9.65;81.24
7376;BME280;3728;42.266;24.944;2023-03-25T01:21:39;99280.78;;;9.78;79.36
7376;BME280;3728;42.266;24.944;2023-03-25T01:24:09;99277.47;;;9.64;78.39
7376;BME280;3728;42.266;24.944;2023-03-25T01:26:37;99274.66;;;9.30;81.07
7376;BME280;3728;42.266;24.944;2023-03-25T01:29:06;99265.44;;;9.32;81.52
7376;BME280;3728;42.266;24.944;2023-03-25T01:31:35;99259.19;;;9.42;80.81
7376;BME280;3728;42.266;24.944;2023-03-25T01:34:03;99258.84;;;9.35;81.61
7376;BME280;3728;42.266;24.944;2023-03-25T01:36:30;99256.03;;;9.31;82.05
7376;BME280;3728;42.266;24.944;2023-03-25T01:38:58;99252.28;;;9.24;82.87
7376;BME280;3728;42.266;24.944;2023-03-25T01:41:28;99260.66;;;9.12;83.67
7376;BME280;3728;42.266;24.944;2023-03-25T01:46:47;99248.19;;;9.09;82.93
7376;BME280;3728;42.266;24.944;2023-03-25T01:49:29;99239.41;;;9.05;83.02
7376;BME280;3728;42.266;24.944;2023-03-25T01:52:08;99250.69;;;9.14;83.47
7376;BME280;3728;42.266;24.944;2023-03-25T01:54:42;99248.84;;;8.92;84.82
7376;BME280;3728;42.266;24.944;2023-03-25T01:57:12;99242.66;;;8.88;85.53
7376;BME280;3728;42.266;24.944;2023-03-25T01:59:43;99241.50;;;9.17;84.81
7376;BME280;3728;42.266;24.944;2023-03-25T02:02:12;99236.44;;;8.98;85.10
7376;BME280;3728;42.266;24.944;2023-03-25T02:05:16;99232.69;;;8.90;86.05
7376;BME280;3728;42.266;24.944;2023-03-25T02:07:50;99231.88;;;9.04;85.98
7376;BME280;3728;42.266;24.944;2023-03-25T02:10:23;99236.53;;;9.07;85.18
7376;BME280;3728;42.266;24.944;2023-03-25T02:12:51;99248.06;;;8.92;85.29
7376;BME280;3728;42.266;24.944;2023-03-25T02:15:19;99241.44;;;8.72;86.50
7376;BME280;3728;42.266;24.944;2023-03-25T02:17:58;99235.06;;;8.78;87.21
7376;BME280;3728;42.266;24.944;2023-03-25T02:32:12;99216.00;;;8.78;88.59
7376;BME280;3728;42.266;24.944;2023-03-25T02:43:31;99215.69;;;8.79;82.73
7376;BME280;3728;42.266;24.944;2023-03-25T02:46:22;99218.88;;;8.54;81.63
7376;BME280;3728;42.266;24.944;2023-03-25T02:49:15;99224.28;;;8.44;81.38
7376;BME280;3728;42.266;24.944;2023-03-25T02:52:05;99218.00;;;8.32;82.58
7376;BME280;3728;42.266;24.944;2023-03-25T02:54:38;99213.09;;;8.16;84.00
7376;BME280;3728;42.266;24.944;2023-03-25T02:57:09;99213.66;;;8.13;84.72
7376;BME280;3728;42.266;24.944;2023-03-25T02:59:40;99211.72;;;8.19;84.52
7376;BME280;3728;42.266;24.944;2023-03-25T03:02:12;99202.63;;;7.76;84.41
7376;BME280;3728;42.266;24.944;2023-03-25T03:04:51;99204.38;;;7.67;85.31
7376;BME280;3728;42.266;24.944;2023-03-25T03:07:27;99199.94;;;7.81;85.33
7376;BME280;3728;42.266;24.944;2023-03-25T03:10:19;99199.94;;;7.67;86.65
7376;BME280;3728;42.266;24.944;2023-03-25T03:12:58;99193.91;;;7.39;87.35
7376;BME280;3728;42.266;24.944;2023-03-25T03:21:22;99187.63;;;7.40;89.33
7376;BME280;3728;42.266;24.944;2023-03-25T03:24:04;99195.47;;;7.54;88.37
7376;BME280;3728;42.266;24.944;2023-03-25T03:26:53;99198.16;;;7.49;87.62
7376;BME280;3728;42.266;24.944;2023-03-25T03:30:05;99196.13;;;7.46;88.83
7376;BME280;3728;42.266;24.944;2023-03-25T03:33:20;99193.53;;;7.59;87.96
7376;BME280;3728;42.266;24.944;2023-03-25T03:36:09;99186.28;;;7.56;88.34
7376;BME280;3728;42.266;24.944;2023-03-25T03:38:45;99189.28;;;7.50;89.37
7376;BME280;3728;42.266;24.944;2023-03-25T03:41:20;99176.97;;;7.69;89.18
7376;BME280;3728;42.266;24.944;2023-03-25T03:43:55;99179.47;;;7.74;88.86
7376;BME280;3728;42.266;24.944;2023-03-25T03:46:38;99176.19;;;7.69;88.78
7376;BME280;3728;42.266;24.944;2023-03-25T03:49:17;99170.56;;;7.62;89.30
7376;BME280;3728;42.266;24.944;2023-03-25T03:51:58;99180.34;;;7.70;88.45
7376;BME280;3728;42.266;24.944;2023-03-25T03:54:50;99187.88;;;7.71;88.78
7376;BME280;3728;42.266;24.944;2023-03-25T03:57:24;99184.84;;;7.50;88.92
7376;BME280;3728;42.266;24.944;2023-03-25T04:05:25;99182.06;;;7.61;88.25
7376;BME280;3728;42.266;24.944;2023-03-25T04:08:02;99167.97;;;7.62;87.53
7376;BME280;3728;42.266;24.944;2023-03-25T04:10:48;99173.09;;;7.67;88.12
7376;BME280;3728;42.266;24.944;2023-03-25T04:13:21;99177.75;;;7.70;87.81
7376;BME280;3728;42.266;24.944;2023-03-25T04:15:49;99168.56;;;7.72;88.00
7376;BME280;3728;42.266;24.944;2023-03-25T04:18:17;99171.16;;;7.58;89.05
7376;BME280;3728;42.266;24.944;2023-03-25T04:20:48;99182.75;;;7.66;88.46
7376;BME280;3728;42.266;24.944;2023-03-25T04:23:16;99181.47;;;7.64;88.47
7376;BME280;3728;42.266;24.944;2023-03-25T04:25:44;99173.16;;;7.48;87.55
7376;BME280;3728;42.266;24.944;2023-03-25T04:28:21;99183.91;;;7.87;84.74
7376;BME280;3728;42.266;24.944;2023-03-25T04:30:51;99182.56;;;7.30;87.22
7376;BME280;3728;42.266;24.944;2023-03-25T04:33:22;99180.81;;;7.12;87.82
7376;BME280;3728;42.266;24.944;2023-03-25T04:35:50;99186.66;;;7.04;89.22
7376;BME280;3728;42.266;24.944;2023-03-25T04:38:19;99181.53;;;6.99;89.13
7376;BME280;3728;42.266;24.944;2023-03-25T04:40:46;99181.53;;;6.99;88.76
7376;BME280;3728;42.266;24.944;2023-03-25T04:43:15;99186.25;;;6.97;87.96
7376;BME280;3728;42.266;24.944;2023-03-25T04:45:43;99197.31;;;6.89;89.62
7376;BME280;3728;42.266;24.944;2023-03-25T04:48:23;99197.41;;;6.98;89.76
7376;BME280;3728;42.266;24.944;2023-03-25T04:50:57;99202.44;;;6.94;90.23
7376;BME280;3728;42.266;24.944;2023-03-25T04:53:25;99200.59;;;7.13;90.80
7376;BME280;3728;42.266;24.944;2023-03-25T04:55:54;99209.47;;;7.26;89.89
7376;BME280;3728;42.266;24.944;2023-03-25T04:58:21;99211.13;;;7.22;89.41
7376;BME280;3728;42.266;24.944;2023-03-25T05:00:50;99213.53;;;7.18;90.35
7376;BME280;3728;42.266;24.944;2023-03-25T05:03:18;99210.91;;;7.18;91.35
7376;BME280;3728;42.266;24.944;2023-03-25T05:05:52;99211.84;;;7.41;89.72
7376;BME280;3728;42.266;24.944;2023-03-25T05:08:20;99205.13;;;7.53;88.54
7376;BME280;3728;42.266;24.944;2023-03-25T05:10:48;99197.03;;;7.69;87.98
7376;BME280;3728;42.266;24.944;2023-03-25T05:13:16;99203.59;;;7.80;89.15
7376;BME280;3728;42.266;24.944;2023-03-25T05:15:43;99200.72;;;7.95;88.48
7376;BME280;3728;42.266;24.944;2023-03-25T05:18:13;99197.31;;;8.08;88.48
7376;BME280;3728;42.266;24.944;2023-03-25T05:20:44;99203.03;;;8.23;88.16
7376;BME280;3728;42.266;24.944;2023-03-25T05:23:13;99206.41;;;8.38;88.91
7376;BME280;3728;42.266;24.944;2023-03-25T05:25:47;99205.50;;;8.56;88.40
7376;BME280;3728;42.266;24.944;2023-03-25T05:28:17;99194.66;;;8.62;88.63
7376;BME280;3728;42.266;24.944;2023-03-25T05:30:46;99201.47;;;8.85;88.24
7376;BME280;3728;42.266;24.944;2023-03-25T05:33:16;99200.75;;;8.93;88.83
7376;BME280;3728;42.266;24.944;2023-03-25T05:35:45;99201.94;;;9.10;88.72
7376;BME280;3728;42.266;24.944;2023-03-25T05:38:13;99202.66;;;9.24;88.00
7376;BME280;3728;42.266;24.944;2023-03-25T05:40:45;99197.06;;;9.39;87.31
7376;BME280;3728;42.266;24.944;2023-03-25T05:43:15;99201.44;;;10.22;83.12
7376;BME280;3728;42.266;24.944;2023-03-25T05:45:48;99206.09;;;10.51;81.99
7376;BME280;3728;42.266;24.944;2023-03-25T05:48:16;99200.84;;;10.34;83.20
7376;BME280;3728;42.266;24.944;2023-03-25T05:50:43;99197.19;;;10.04;84.55
7376;BME280;3728;42.266;24.944;2023-03-25T05:53:13;99199.28;;;10.24;84.44
7376;BME280;3728;42.266;24.944;2023-03-25T05:55:42;99201.88;;;10.15;84.95
7376;BME280;3728;42.266;24.944;2023-03-25T05:58:09;99194.84;;;10.33;84.38
7376;BME280;3728;42.266;24.944;2023-03-25T06:00:37;99204.06;;;10.22;85.79
7376;BME280;3728;42.266;24.944;2023-03-25T06:03:06;99202.50;;;10.12;87.75
7376;BME280;3728;42.266;24.944;2023-03-25T06:05:37;99201.16;;;10.41;88.54
7376;BME280;3728;42.266;24.944;2023-03-25T06:08:05;99200.72;;;10.73;86.43
7376;BME280;3728;42.266;24.944;2023-03-25T06:10:33;99201.34;;;10.78;86.37
7376;BME280;3728;42.266;24.944;2023-03-25T06:13:01;99210.13;;;10.91;85.22
7376;BME280;3728;42.266;24.944;2023-03-25T06:15:30;99209.81;;;11.18;82.86
7376;BME280;3728;42.266;24.944;2023-03-25T06:18:05;99202.22;;;11.34;82.83
7376;BME280;3728;42.266;24.944;2023-03-25T06:20:33;99212.28;;;11.23;82.71
7376;BME280;3728;42.266;24.944;2023-03-25T06:23:01;99206.53;;;11.30;84.31
7376;BME280;3728;42.266;24.944;2023-03-25T06:25:30;99209.28;;;11.33;84.10
7376;BME280;3728;42.266;24.944;2023-03-25T06:27:59;99204.97;;;11.46;82.92
7376;BME280;3728;42.266;24.944;2023-03-25T06:30:29;99206.03;;;11.53;82.13
7376;BME280;3728;42.266;24.944;2023-03-25T06:32:56;99203.97;;;11.76;82.24
7376;BME280;3728;42.266;24.944;2023-03-25T06:35:28;99206.91;;;12.12;80.50
7376;BME280;3728;42.266;24.944;2023-03-25T06:37:56;99210.44;;;12.37;78.05
7376;BME280;3728;42.266;24.944;2023-03-25T06:40:45;99198.50;;;12.69;77.66
7376;BME280;3728;42.266;24.944;2023-03-25T06:43:14;99205.69;;;12.80;78.20
7376;BME280;3728;42.266;24.944;2023-03-25T06:46:18;99207.22;;;13.02;75.37
7376;BME280;3728;42.266;24.944;2023-03-25T06:49:07;99201.44;;;12.88;76.30
7376;BME280;3728;42.266;24.944;2023-03-25T06:51:35;99206.22;;;12.86;76.72
7376;BME280;3728;42.266;24.944;2023-03-25T06:54:02;99206.06;;;13.12;76.54
7376;BME280;3728;42.266;24.944;2023-03-25T06:56:30;99211.31;;;13.12;77.58
7376;BME280;3728;42.266;24.944;2023-03-25T06:58:57;99208.81;;;13.15;77.79
7376;BME280;3728;42.266;24.944;2023-03-25T07:01:26;99201.69;;;13.60;75.34
7376;BME280;3728;42.266;24.944;2023-03-25T07:03:53;99207.25;;;13.59;76.42
7376;BME280;3728;42.266;24.944;2023-03-25T07:06:23;99206.31;;;13.63;76.40
7376;BME280;3728;42.266;24.944;2023-03-25T07:08:50;99208.06;;;13.71;75.81
7376;BME280;3728;42.266;24.944;2023-03-25T07:11:25;99197.34;;;13.89;74.12
7376;BME280;3728;42.266;24.944;2023-03-25T07:14:19;99203.38;;;13.89;73.36
7376;BME280;3728;42.266;24.944;2023-03-25T07:16:46;99208.41;;;14.06;71.94
7376;BME280;3728;42.266;24.944;2023-03-25T07:19:14;99212.25;;;14.21;71.38
7376;BME280;3728;42.266;24.944;2023-03-25T07:21:42;99213.88;;;14.25;70.01
7376;BME280;3728;42.266;24.944;2023-03-25T07:24:09;99206.84;;;14.42;72.46
7376;BME280;3728;42.266;24.944;2023-03-25T07:26:37;99202.25;;;14.90;71.70
7376;BME280;3728;42.266;24.944;2023-03-25T07:29:07;99200.88;;;15.67;67.58
7376;BME280;3728;42.266;24.944;2023-03-25T07:31:34;99203.56;;;15.40;67.86
7376;BME280;3728;42.266;24.944;2023-03-25T07:34:05;99210.31;;;15.25;68.56
7376;BME280;3728;42.266;24.944;2023-03-25T07:36:33;99197.31;;;15.17;69.81
7376;BME280;3728;42.266;24.944;2023-03-25T07:39:01;99206.25;;;15.43;69.28
7376;BME280;3728;42.266;24.944;2023-03-25T07:41:29;99204.84;;;15.46;70.02
7376;BME280;3728;42.266;24.944;2023-03-25T07:44:19;99205.72;;;15.81;65.39
7376;BME280;3728;42.266;24.944;2023-03-25T07:46:48;99201.53;;;15.96;65.03
7376;BME280;3728;42.266;24.944;2023-03-25T07:49:16;99197.97;;;15.88;67.79
7376;BME280;3728;42.266;24.944;2023-03-25T07:51:46;99198.53;;;15.97;67.83
7376;BME280;3728;42.266;24.944;2023-03-25T07:54:14;99191.13;;;16.72;61.14
7376;BME280;3728;42.266;24.944;2023-03-25T07:56:43;99196.91;;;16.24;62.56
7376;BME280;3728;42.266;24.944;2023-03-25T07:59:11;99197.63;;;16.40;63.23
7376;BME280;3728;42.266;24.944;2023-03-25T08:01:38;99181.34;;;16.38;65.15
7376;BME280;3728;42.266;24.944;2023-03-25T08:04:07;99185.66;;;16.81;60.88
7376;BME280;3728;42.266;24.944;2023-03-25T08:06:35;99187.50;;;17.19;60.26
7376;BME280;3728;42.266;24.944;2023-03-25T08:09:03;99186.50;;;17.07;59.34
7376;BME280;3728;42.266;24.944;2023-03-25T08:11:30;99179.16;;;17.17;59.99
7376;BME280;3728;42.266;24.944;2023-03-25T08:13:59;99174.47;;;17.10;58.09
7376;BME280;3728;42.266;24.944;2023-03-25T08:16:27;99185.38;;;17.50;59.01
7376;BME280;3728;42.266;24.944;2023-03-25T08:18:55;99179.00;;;17.51;57.70
7376;BME280;3728;42.266;24.944;2023-03-25T08:21:24;99169.56;;;17.31;58.36
7376;BME280;3728;42.266;24.944;2023-03-25T08:23:53;99169.75;;;17.42;59.67
7376;BME280;3728;42.266;24.944;2023-03-25T08:26:29;99169.59;;;17.54;58.69
7376;BME280;3728;42.266;24.944;2023-03-25T08:29:00;99177.22;;;17.82;59.67
7376;BME280;3728;42.266;24.944;2023-03-25T08:31:31;99176.44;;;17.81;58.85
7376;BME280;3728;42.266;24.944;2023-03-25T08:34:00;99172.72;;;18.08;56.81
7376;BME280;3728;42.266;24.944;2023-03-25T08:36:28;99185.28;;;18.15;55.17
7376;BME280;3728;42.266;24.944;2023-03-25T08:38:55;99175.84;;;18.17;54.55
7376;BME280;3728;42.266;24.944;2023-03-25T08:41:23;99169.22;;;18.30;55.29
7376;BME280;3728;42.266;24.944;2023-03-25T08:43:51;99163.41;;;18.21;55.03
7376;BME280;3728;42.266;24.944;2023-03-25T08:46:18;99168.16;;;18.65;53.46
7376;BME280;3728;42.266;24.944;2023-03-25T08:48:46;99163.38;;;18.77;53.70
7376;BME280;3728;42.266;24.944;2023-03-25T08:51:15;99152.16;;;18.91;52.84
7376;BME280;3728;42.266;24.944;2023-03-25T08:53:43;99147.72;;;19.02;51.54
7376;BME280;3728;42.266;24.944;2023-03-25T08:56:11;99154.13;;;18.97;50.31
7376;BME280;3728;42.266;24.944;2023-03-25T08:58:39;99153.03;;;19.02;52.07
7376;BME280;3728;42.266;24.944;2023-03-25T09:01:07;99140.78;;;19.31;50.00
7376;BME280;3728;42.266;24.944;2023-03-25T09:03:34;99138.44;;;19.66;49.25
7376;BME280;3728;42.266;24.944;2023-03-25T09:06:05;99118.34;;;19.68;50.04
7376;BME280;3728;42.266;24.944;2023-03-25T09:08:33;99126.94;;;19.51;48.57
7376;BME280;3728;42.266;24.944;2023-03-25T09:11:03;99124.19;;;19.37;50.45
7376;BME280;3728;42.266;24.944;2023-03-25T09:13:30;99119.16;;;19.29;49.86
7376;BME280;3728;42.266;24.944;2023-03-25T09:15:58;99113.22;;;20.00;47.74
7376;BME280;3728;42.266;24.944;2023-03-25T09:18:25;99111.44;;;19.60;50.00
7376;BME280;3728;42.266;24.944;2023-03-25T09:20:58;99101.97;;;19.63;47.58
7376;BME280;3728;42.266;24.944;2023-03-25T09:23:26;99106.69;;;19.91;45.00
7376;BME280;3728;42.266;24.944;2023-03-25T09:25:55;99094.09;;;19.77;46.54
7376;BME280;3728;42.266;24.944;2023-03-25T09:28:28;99103.41;;;20.15;45.49
7376;BME280;3728;42.266;24.944;2023-03-25T09:30:56;99095.00;;;20.02;47.92
7376;BME280;3728;42.266;24.944;2023-03-25T09:33:24;99096.41;;;20.65;43.18
7376;BME280;3728;42.266;24.944;2023-03-25T09:35:53;99083.09;;;20.68;44.21
7376;BME280;3728;42.266;24.944;2023-03-25T09:38:22;99082.34;;;20.57;43.53
7376;BME280;3728;42.266;24.944;2023-03-25T09:40:50;99086.88;;;20.50;45.71
7376;BME280;3728;42.266;24.944;2023-03-25T09:43:31;99085.41;;;20.70;44.24
7376;BME280;3728;42.266;24.944;2023-03-25T09:46:06;99085.81;;;20.93;43.68
7376;BME280;3728;42.266;24.944;2023-03-25T09:48:39;99085.47;;;21.58;43.65
7376;BME280;3728;42.266;24.944;2023-03-25T09:51:28;99076.75;;;21.19;43.76
7376;BME280;3728;42.266;24.944;2023-03-25T09:54:24;99074.84;;;21.08;44.79
7376;BME280;3728;42.266;24.944;2023-03-25T09:57:01;99059.22;;;21.32;45.15
7376;BME280;3728;42.266;24.944;2023-03-25T09:59:43;99063.00;;;21.48;45.58
7376;BME280;3728;42.266;24.944;2023-03-25T10:02:41;99053.75;;;22.02;43.17
7376;BME280;3728;42.266;24.944;2023-03-25T10:05:19;99052.22;;;22.08;43.75
7376;BME280;3728;42.266;24.944;2023-03-25T10:11:11;99049.44;;;22.36;42.79
7376;BME280;3728;42.266;24.944;2023-03-25T10:14:20;99033.81;;;22.35;44.16
7376;BME280;3728;42.266;24.944;2023-03-25T10:20:18;99015.63;;;22.81;43.10
7376;BME280;3728;42.266;24.944;2023-03-25T10:23:16;99012.81;;;22.99;41.08
7376;BME280;3728;42.266;24.944;2023-03-25T10:25:55;99009.81;;;22.90;41.86
7376;BME280;3728;42.266;24.944;2023-03-25T10:28:31;99010.41;;;23.15;40.18
7376;BME280;3728;42.266;24.944;2023-03-25T10:31:04;98996.94;;;22.78;41.96
7376;BME280;3728;42.266;24.944;2023-03-25T10:33:38;98988.34;;;22.53;42.92
7376;BME280;3728;42.266;24.944;2023-03-25T10:36:14;98978.84;;;22.52;42.52
7376;BME280;3728;42.266;24.944;2023-03-25T10:38:47;98974.94;;;22.60;42.76
7376;BME280;3728;42.266;24.944;2023-03-25T10:41:29;98976.97;;;22.96;41.79
7376;BME280;3728;42.266;24.944;2023-03-25T10:44:09;98969.75;;;23.71;40.72
7376;BME280;3728;42.266;24.944;2023-03-25T10:49:23;98952.06;;;23.47;40.52
7376;BME280;3728;42.266;24.944;2023-03-25T10:51:54;98952.31;;;23.60;41.06
7376;BME280;3728;42.266;24.944;2023-03-25T10:54:29;98953.41;;;23.62;41.32
7376;BME280;3728;42.266;24.944;2023-03-25T10:57:02;98949.66;;;23.87;40.76
7376;BME280;3728;42.266;24.944;2023-03-25T11:02:47;98938.72;;;24.34;38.33
7376;BME280;3728;42.266;24.944;2023-03-25T11:05:21;98932.47;;;24.18;38.97
7376;BME280;3728;42.266;24.944;2023-03-25T11:07:58;98932.13;;;24.16;38.97
7376;BME280;3728;42.266;24.944;2023-03-25T11:10:47;98927.34;;;24.27;38.34
7376;BME280;3728;42.266;24.944;2023-03-25T11:13:28;98929.72;;;24.21;38.57
7376;BME280;3728;42.266;24.944;2023-03-25T11:16:02;98912.41;;;24.29;39.03
7376;BME280;3728;42.266;24.944;2023-03-25T11:18:47;98915.50;;;24.28;38.94
7376;BME280;3728;42.266;24.944;2023-03-25T11:21:17;98914.16;;;24.16;39.24
7376;BME280;3728;42.266;24.944;2023-03-25T11:23:50;98908.63;;;24.27;38.97
7376;BME280;3728;42.266;24.944;2023-03-25T11:26:26;98894.97;;;24.91;38.31
7376;BME280;3728;42.266;24.944;2023-03-25T11:29:18;98898.44;;;24.65;37.97
7376;BME280;3728;42.266;24.944;2023-03-25T11:32:06;98887.94;;;24.77;37.83
7376;BME280;3728;42.266;24.944;2023-03-25T11:34:46;98884.81;;;25.02;37.10
7376;BME280;3728;42.266;24.944;2023-03-25T11:37:17;98879.66;;;25.11;37.21
7376;BME280;3728;42.266;24.944;2023-03-25T11:39:50;98872.94;;;25.62;35.77
7376;BME280;3728;42.266;24.944;2023-03-25T11:45:02;98871.50;;;25.57;35.69
7376;BME280;3728;42.266;24.944;2023-03-25T11:47:35;98861.50;;;25.58;36.43
7376;BME280;3728;42.266;24.944;2023-03-25T11:50:05;98857.53;;;25.82;35.42
7376;BME280;3728;42.266;24.944;2023-03-25T11:52:40;98853.69;;;25.99;35.00
7376;BME280;3728;42.266;24.944;2023-03-25T11:55:28;98848.50;;;26.08;35.71
7376;BME280;3728;42.266;24.944;2023-03-25T11:57:59;98844.31;;;26.39;34.57
7376;BME280;3728;42.266;24.944;2023-03-25T12:05:40;98823.56;;;27.26;33.53
7376;BME280;3728;42.266;24.944;2023-03-25T12:08:16;98824.22;;;27.30;34.76
7376;BME280;3728;42.266;24.944;2023-03-25T12:10:54;98819.06;;;27.36;33.88
7376;BME280;3728;42.266;24.944;2023-03-25T12:13:53;98814.69;;;27.42;34.69
7376;BME280;3728;42.266;24.944;2023-03-25T12:25:22;98791.19;;;28.05;34.52
7376;BME280;3728;42.266;24.944;2023-03-25T12:49:14;98764.66;;;28.51;32.25
7376;BME280;3728;42.266;24.944;2023-03-25T12:52:03;98756.09;;;28.65;30.61
7376;BME280;3728;42.266;24.944;2023-03-25T13:12:38;98717.25;;;29.94;29.63
7376;BME280;3728;42.266;24.944;2023-03-25T13:15:29;98715.66;;;29.57;29.69
7376;BME280;3728;42.266;24.944;2023-03-25T13:18:27;98716.47;;;28.96;30.08
7376;BME280;3728;42.266;24.944;2023-03-25T13:21:12;98710.81;;;28.72;30.69
7376;BME280;3728;42.266;24.944;2023-03-25T13:23:59;98701.03;;;28.66;31.18
7376;BME280;3728;42.266;24.944;2023-03-25T13:26:39;98698.34;;;28.66;33.01
7376;BME280;3728;42.266;24.944;2023-03-25T13:32:27;98689.72;;;28.58;34.30
7376;BME280;3728;42.266;24.944;2023-03-25T13:35:14;98697.06;;;29.10;33.58
7376;BME280;3728;42.266;24.944;2023-03-25T13:37:57;98698.88;;;29.62;31.97
7376;BME280;3728;42.266;24.944;2023-03-25T13:40:40;98692.06;;;30.42;30.97
7376;BME280;3728;42.266;24.944;2023-03-25T13:43:23;98693.47;;;30.71;29.81
7376;BME280;3728;42.266;24.944;2023-03-25T13:46:32;98690.09;;;30.52;29.92
7376;BME280;3728;42.266;24.944;2023-03-25T13:49:13;98686.09;;;30.80;29.57
7376;BME280;3728;42.266;24.944;2023-03-25T13:51:59;98691.94;;;30.79;32.14
7376;BME280;3728;42.266;24.944;2023-03-25T13:54:38;98684.59;;;30.79;30.54
7376;BME280;3728;42.266;24.944;2023-03-25T14:00:26;98671.78;;;30.98;30.92
7376;BME280;3728;42.266;24.944;2023-03-25T14:14:40;98659.38;;;28.88;34.12
7376;BME280;3728;42.266;24.944;2023-03-25T14:17:11;98656.03;;;28.32;34.85
7376;BME280;3728;42.266;24.944;2023-03-25T14:19:46;98652.53;;;28.22;34.24
7376;BME280;3728;42.266;24.944;2023-03-25T14:22:22;98645.88;;;27.93;35.34
7376;BME280;3728;42.266;24.944;2023-03-25T14:24:56;98639.97;;;27.51;35.83
7376;BME280;3728;42.266;24.944;2023-03-25T14:27:31;98644.28;;;27.48;35.02
7376;BME280;3728;42.266;24.944;2023-03-25T14:30:06;98644.34;;;28.26;34.70
7376;BME280;3728;42.266;24.944;2023-03-25T14:32:46;98649.34;;;28.89;32.95
7376;BME280;3728;42.266;24.944;2023-03-25T14:43:38;98629.78;;;26.83;38.02
7376;BME280;3728;42.266;24.944;2023-03-25T14:59:18;98617.81;;;25.11;40.32
7376;BME280;3728;42.266;24.944;2023-03-25T15:01:50;98617.13;;;24.91;41.18
7376;BME280;3728;42.266;24.944;2023-03-25T15:04:26;98616.44;;;24.87;40.45
7376;BME280;3728;42.266;24.944;2023-03-25T15:06:58;98620.16;;;24.74;40.17
7376;BME280;3728;42.266;24.944;2023-03-25T15:09:28;98625.75;;;24.63;40.26
7376;BME280;3728;42.266;24.944;2023-03-25T15:11:59;98624.03;;;24.53;39.52
7376;BME280;3728;42.266;24.944;2023-03-25T15:14:33;98623.03;;;24.47;40.01
7376;BME280;3728;42.266;24.944;2023-03-25T15:17:37;98625.00;;;24.43;40.58
7376;BME280;3728;42.266;24.944;2023-03-25T15:22:37;98625.38;;;24.25;42.03
7376;BME280;3728;42.266;24.944;2023-03-25T15:25:16;98634.06;;;24.29;43.05
7376;BME280;3728;42.266;24.944;2023-03-25T15:30:58;98639.50;;;24.06;43.19
7376;BME280;3728;42.266;24.944;2023-03-25T15:33:56;98647.19;;;24.01;43.37
7376;BME280;3728;42.266;24.944;2023-03-25T15:43:07;98650.22;;;23.83;42.93
7376;BME280;3728;42.266;24.944;2023-03-25T15:55:19;98657.66;;;23.22;42.94
7376;BME280;3728;42.266;24.944;2023-03-25T15:58:28;98668.91;;;23.10;43.72
7376;BME280;3728;42.266;24.944;2023-03-25T16:01:26;98682.44;;;22.96;44.50
7376;BME280;3728;42.266;24.944;2023-03-25T16:04:04;98683.09;;;22.73;42.87
7376;BME280;3728;42.266;24.944;2023-03-25T16:06:39;98682.53;;;22.59;43.17
7376;BME280;3728;42.266;24.944;2023-03-25T16:09:16;98688.47;;;22.36;44.37
7376;BME280;3728;42.266;24.944;2023-03-25T16:12:01;98693.19;;;22.21;45.38
7376;BME280;3728;42.266;24.944;2023-03-25T16:14:31;98707.22;;;21.92;46.59
7376;BME280;3728;42.266;24.944;2023-03-25T16:17:01;98711.41;;;21.89;48.29
7376;BME280;3728;42.266;24.944;2023-03-25T16:19:50;98716.88;;;21.68;49.84
7376;BME280;3728;42.266;24.944;2023-03-25T16:22:49;98712.84;;;21.46;51.45
7376;BME280;3728;42.266;24.944;2023-03-25T16:25:23;98708.00;;;21.34;51.92
7376;BME280;3728;42.266;24.944;2023-03-25T16:27:56;98706.13;;;21.27;53.79
7376;BME280;3728;42.266;24.944;2023-03-25T16:30:33;98727.28;;;21.52;52.38
7376;BME280;3728;42.266;24.944;2023-03-25T16:38:07;98736.25;;;21.13;53.91
7376;BME280;3728;42.266;24.944;2023-03-25T16:40:49;98744.25;;;21.17;53.23
7376;BME280;3728;42.266;24.944;2023-03-25T16:43:23;98746.50;;;21.15;52.23